Milwaukee, WI (53209)

8:14 AM CDT on April 21, 2015 (GMT -0500)
Brantwood Lake | | Change Station
CLOSE
Current Station
Personal Weather Station
Location: Glendale, WI
Elevation: 666 ft
Nearby Weather Stations

Elev 666 ft 43.14 °N, 87.94 °W | Updated 4 minutes ago

Overcast
Overcast
37.6 °F
Feels Like 33 °F
N
6.3
Wind Variable Wind from West

Today
High -- | Low -- °F
--% Chance of Precip.
Yesterday
High -- | Low -- °F
Precip. -- in
6:00 AM 7:41 PM
Waxing Crescent, 10% visible
Pressure 29.51 in
Visibility 10.0 miles
Clouds Mostly Cloudy 2300 ft
Overcast 4700 ft
Windchill 33 °F
Dew Point 33 °F
Humidity 84%
Rainfall 0.00 in
Snow Depth Not available.
UV 0 out of 12
Pollen 10.10 out of 12
Air Quality Not available.
Flu Activity Local Activity
METAR KMWC 211245Z COR 25015G25KT 10SM -RA BKN023 OVC047 04/M02 A2951

More Conditions Fewer Conditions

Pressure 29.51 in
Visibility 10.0 miles
Clouds Mostly Cloudy 2300 ft
Overcast 4700 ft
Windchill 33 °F
Dew Point 33 °F
Humidity 84%
Rainfall 0.00 in
Snow Depth Not available.
UV 0 out of 12
Pollen 10.10 out of 12
Air Quality Not available.
Flu Activity Local Activity
METAR KMWC 211245Z COR 25015G25KT 10SM -RA BKN023 OVC047 04/M02 A2951

More Conditions Fewer Conditions

10-Day Weather Forecast

Almanac

Astronomy

Apr. 21, 2015 Rise Set
Actual Time
Civil Twilight
Nautical Twilight
Astronomical Twilight
Moon
Length of Visible Light
Length of Day
Tomorrow will be .
, % of the Moon is Illuminated

Today's Extremes

State Highs State Lows

Community

WunderPhotos

Upload Photos

1,815,370 photos uploaded!

WunderBlogs® & News

Nearby

Air Quality

  Air Quality AQ Index Pollutant
Not available.

Snow Depth

Station Depth Elevation

Earthquake Activity

City Distance Mag. Time & Date
Minimum magnitude displayed is 2.5.

Coastal Water Temperatures

Place Temperature

Stations

Nearby Weather Stations

Station Location Temp. Windchill Dew Point Humidity Wind Precip. Elev Updated Type